createdAt,value
2018-09-27T00:02:22.854Z,99.90
2018-09-27T00:04:51.365Z,99.90
2018-09-27T00:07:19.849Z,99.90
2018-09-27T00:09:48.394Z,99.90
2018-09-27T00:12:16.885Z,99.90
2018-09-27T00:14:45.426Z,99.90
2018-09-27T00:17:14.109Z,99.90
2018-09-27T00:19:42.707Z,99.90
2018-09-27T00:22:11.166Z,99.90
2018-09-27T00:24:39.729Z,99.90
2018-09-27T00:27:08.266Z,99.90
2018-09-27T00:29:36.838Z,99.90
2018-09-27T00:32:05.364Z,99.90
2018-09-27T00:34:33.932Z,99.90
2018-09-27T00:37:03.107Z,99.90
2018-09-27T00:39:31.649Z,99.90
2018-09-27T00:42:00.161Z,99.90
2018-09-27T00:44:28.722Z,99.90
2018-09-27T00:46:57.311Z,99.90
2018-09-27T00:49:25.906Z,99.90
2018-09-27T00:51:54.424Z,99.90
2018-09-27T00:54:23.008Z,99.90
2018-09-27T00:56:51.548Z,99.90
2018-09-27T00:59:20.093Z,99.90
2018-09-27T01:01:48.625Z,99.90
2018-09-27T01:04:17.178Z,99.90
2018-09-27T01:06:45.692Z,99.90
2018-09-27T01:09:14.269Z,99.90
2018-09-27T01:11:42.793Z,99.90
2018-09-27T01:14:11.321Z,99.90
2018-09-27T01:16:39.848Z,99.90
2018-09-27T01:19:08.373Z,99.90
2018-09-27T01:21:36.865Z,99.90
2018-09-27T01:24:05.414Z,99.90
2018-09-27T01:26:33.929Z,99.90
2018-09-27T01:29:02.420Z,99.90
2018-09-27T01:31:30.935Z,99.90
2018-09-27T01:33:59.450Z,99.90
2018-09-27T01:36:27.970Z,99.90
2018-09-27T01:38:56.477Z,99.90
2018-09-27T01:41:25.011Z,99.90
2018-09-27T01:43:53.510Z,99.90
2018-09-27T01:46:22.042Z,99.90
2018-09-27T01:48:50.545Z,99.90
2018-09-27T01:51:19.073Z,99.90
2018-09-27T01:53:47.605Z,99.90
2018-09-27T01:56:16.136Z,99.90
2018-09-27T01:58:44.629Z,99.90
2018-09-27T02:01:13.157Z,99.90
2018-09-27T02:03:41.661Z,99.90
2018-09-27T02:06:10.182Z,99.90
2018-09-27T02:08:38.689Z,99.90
2018-09-27T02:11:07.222Z,99.90
2018-09-27T02:13:35.721Z,99.90
2018-09-27T02:16:04.261Z,99.90
2018-09-27T02:18:32.788Z,99.90
2018-09-27T02:21:01.310Z,99.90
2018-09-27T02:23:29.819Z,99.90
2018-09-27T02:25:58.340Z,99.90
2018-09-27T02:28:26.847Z,99.90
2018-09-27T02:30:55.377Z,99.90
2018-09-27T02:33:23.868Z,99.90
2018-09-27T02:35:52.401Z,99.90
2018-09-27T02:38:20.906Z,99.90
2018-09-27T02:40:49.454Z,99.90
2018-09-27T02:43:17.965Z,99.90
2018-09-27T02:45:46.493Z,99.90
2018-09-27T02:48:15.006Z,99.90
2018-09-27T02:50:43.522Z,99.90
2018-09-27T02:53:12.034Z,99.90
2018-09-27T02:55:40.562Z,99.90
2018-09-27T02:58:09.085Z,99.90
2018-09-27T03:00:37.613Z,99.90
2018-09-27T03:03:06.361Z,99.90
2018-09-27T03:05:34.894Z,99.90
2018-09-27T03:08:03.406Z,99.90
2018-09-27T03:10:31.946Z,99.90
2018-09-27T03:13:00.450Z,99.90
2018-09-27T03:15:28.953Z,99.90
2018-09-27T03:17:57.517Z,99.90
2018-09-27T03:20:26.073Z,99.90
2018-09-27T03:22:54.621Z,99.90
2018-09-27T03:25:23.184Z,99.90
2018-09-27T03:27:51.709Z,99.90
2018-09-27T03:30:20.218Z,99.90
2018-09-27T03:32:48.748Z,99.90
2018-09-27T03:35:17.271Z,99.90
2018-09-27T03:37:45.807Z,99.90
2018-09-27T03:40:14.439Z,99.90
2018-09-27T03:42:42.860Z,99.90
2018-09-27T03:45:11.375Z,99.90
2018-09-27T03:47:39.910Z,99.90
2018-09-27T03:50:08.450Z,99.90
2018-09-27T03:52:36.980Z,99.90
2018-09-27T03:55:05.517Z,99.90
2018-09-27T03:57:34.047Z,99.90
2018-09-27T04:00:02.573Z,99.90
2018-09-27T04:02:31.117Z,99.90
2018-09-27T04:04:59.617Z,99.90
2018-09-27T04:07:28.163Z,99.90
2018-09-27T04:09:56.672Z,99.90
2018-09-27T04:12:25.239Z,99.90
2018-09-27T04:14:53.747Z,99.90
2018-09-27T04:17:22.569Z,99.90
2018-09-27T04:19:51.057Z,99.90
2018-09-27T04:22:19.589Z,99.90
2018-09-27T04:24:48.128Z,99.90
2018-09-27T04:27:16.647Z,99.90
2018-09-27T04:29:45.181Z,99.90
2018-09-27T04:32:13.681Z,99.90
2018-09-27T04:34:42.207Z,99.90
2018-09-27T04:37:10.714Z,99.90
2018-09-27T04:39:39.256Z,99.90
2018-09-27T04:42:07.794Z,99.90
2018-09-27T04:44:36.321Z,99.90
2018-09-27T04:47:04.831Z,99.90
2018-09-27T04:49:33.361Z,99.90
2018-09-27T04:52:01.859Z,99.90
2018-09-27T04:54:30.439Z,99.90
2018-09-27T04:56:58.904Z,99.90
2018-09-27T04:59:27.550Z,99.90
2018-09-27T05:01:56.058Z,99.90
2018-09-27T05:04:24.591Z,99.90
2018-09-27T05:06:53.285Z,99.90
2018-09-27T05:09:21.873Z,99.90
2018-09-27T05:11:50.445Z,99.90
2018-09-27T05:14:19.009Z,99.90
2018-09-27T05:16:47.561Z,99.90
2018-09-27T05:19:17.067Z,99.90
2018-09-27T05:21:50.349Z,99.90
2018-09-27T05:24:23.414Z,99.90
2018-09-27T05:26:52.090Z,99.90
2018-09-27T05:29:20.963Z,99.90
2018-09-27T05:31:49.521Z,99.90
2018-09-27T05:34:18.066Z,99.90
2018-09-27T05:36:46.672Z,99.90
2018-09-27T05:39:17.806Z,99.90
2018-09-27T05:41:47.585Z,99.90
2018-09-27T05:44:16.121Z,99.90
2018-09-27T05:46:44.762Z,99.90
2018-09-27T05:49:13.785Z,99.90
2018-09-27T05:51:42.383Z,99.90
2018-09-27T05:54:10.917Z,99.90
2018-09-27T05:56:40.133Z,99.90
2018-09-27T05:59:09.382Z,99.90
2018-09-27T06:01:37.900Z,99.90
2018-09-27T06:04:06.514Z,99.90
2018-09-27T06:06:35.228Z,99.90
2018-09-27T06:09:05.241Z,99.90
2018-09-27T06:11:33.822Z,99.90
2018-09-27T06:14:02.318Z,99.90
2018-09-27T06:16:31.169Z,99.90
2018-09-27T06:19:00.146Z,99.90
2018-09-27T06:21:28.999Z,99.90
2018-09-27T06:23:58.165Z,99.90
2018-09-27T06:26:26.865Z,99.90
2018-09-27T06:28:55.411Z,99.90
2018-09-27T06:31:23.926Z,99.90
2018-09-27T06:33:56.130Z,99.90
2018-09-27T06:36:26.074Z,99.90
2018-09-27T06:38:54.945Z,99.90
2018-09-27T06:41:23.496Z,99.90
2018-09-27T06:43:52.045Z,99.90
2018-09-27T06:46:20.580Z,99.90
2018-09-27T06:48:49.142Z,99.90
2018-09-27T06:51:17.664Z,99.90
2018-09-27T06:53:46.173Z,99.90
2018-09-27T06:56:14.733Z,99.90
2018-09-27T06:58:43.239Z,99.90
2018-09-27T07:01:11.957Z,99.90
2018-09-27T07:03:40.466Z,99.90
2018-09-27T07:06:09.014Z,99.90
2018-09-27T07:08:37.573Z,99.90
2018-09-27T07:11:06.492Z,99.90
2018-09-27T07:13:35.324Z,99.90
2018-09-27T07:16:04.579Z,99.90
2018-09-27T07:18:33.801Z,99.90
2018-09-27T07:21:02.418Z,99.90
2018-09-27T07:23:30.925Z,99.90
2018-09-27T07:25:59.494Z,99.90
2018-09-27T07:28:28.003Z,99.90
2018-09-27T07:30:56.715Z,99.90
2018-09-27T07:33:25.232Z,99.90
2018-09-27T07:35:54.163Z,99.90
2018-09-27T07:38:22.752Z,99.90
2018-09-27T07:40:51.316Z,99.90
2018-09-27T07:43:20.146Z,99.90
2018-09-27T07:45:48.737Z,99.90
2018-09-27T07:48:17.499Z,99.90
2018-09-27T07:50:46.241Z,99.90
2018-09-27T07:53:15.279Z,99.90
2018-09-27T07:55:44.249Z,99.90
2018-09-27T07:58:12.779Z,99.90
2018-09-27T08:00:41.453Z,99.90
2018-09-27T08:03:10.278Z,99.90
2018-09-27T08:05:38.947Z,99.90
2018-09-27T08:08:08.119Z,99.90
2018-09-27T08:10:36.658Z,99.90
2018-09-27T08:13:05.183Z,99.90
2018-09-27T08:15:35.384Z,99.90
2018-09-27T08:18:04.368Z,99.90
2018-09-27T08:20:33.331Z,99.90
2018-09-27T08:23:05.964Z,99.90
2018-09-27T08:25:34.735Z,99.90
2018-09-27T08:28:03.284Z,99.90
2018-09-27T08:30:31.810Z,99.90
2018-09-27T08:33:00.435Z,99.90
2018-09-27T08:35:29.310Z,99.90
2018-09-27T08:37:58.021Z,99.90
2018-09-27T08:40:26.577Z,99.90
2018-09-27T08:42:55.377Z,99.90
2018-09-27T08:45:24.661Z,99.90
2018-09-27T08:47:53.610Z,99.90
2018-09-27T08:50:22.132Z,99.90
2018-09-27T08:52:51.405Z,99.90
2018-09-27T08:55:22.207Z,99.90
2018-09-27T08:57:51.138Z,99.90
2018-09-27T09:00:20.216Z,99.90
2018-09-27T09:02:48.861Z,99.90
2018-09-27T09:05:17.405Z,99.90
2018-09-27T09:07:45.992Z,99.90
2018-09-27T09:10:14.537Z,99.90
2018-09-27T09:12:43.101Z,99.90
2018-09-27T09:15:11.758Z,99.90
2018-09-27T09:17:40.478Z,99.90
2018-09-27T09:20:09.511Z,99.90
2018-09-27T09:22:38.086Z,99.90
2018-09-27T09:25:06.952Z,99.90
2018-09-27T09:27:36.661Z,99.90
2018-09-27T09:30:05.257Z,99.90
2018-09-27T09:32:33.805Z,99.90
2018-09-27T09:35:02.309Z,99.90
2018-09-27T09:37:30.839Z,99.90
2018-09-27T09:39:59.401Z,99.90
2018-09-27T09:42:30.869Z,99.90
2018-09-27T09:44:59.420Z,99.90
2018-09-27T09:47:28.585Z,99.90
2018-09-27T09:49:57.692Z,99.90
2018-09-27T09:52:28.274Z,99.90
2018-09-27T09:54:57.250Z,99.90
2018-09-27T09:57:26.329Z,99.90
2018-09-27T09:59:56.342Z,99.90
2018-09-27T10:02:28.143Z,99.90
2018-09-27T10:04:56.790Z,99.90
2018-09-27T10:07:26.082Z,99.80
2018-09-27T10:09:54.730Z,99.90
2018-09-27T10:12:23.282Z,99.90
2018-09-27T10:14:51.852Z,99.90
2018-09-27T10:17:20.713Z,99.70
2018-09-27T10:19:49.258Z,99.90
2018-09-27T10:22:18.141Z,99.90
2018-09-27T10:24:46.717Z,99.90
2018-09-27T10:27:15.369Z,99.90
2018-09-27T10:29:44.145Z,99.40
2018-09-27T10:32:12.661Z,99.20
2018-09-27T10:34:41.302Z,98.90
2018-09-27T10:37:09.745Z,99.20
2018-09-27T10:39:38.399Z,99.10
2018-09-27T10:42:06.965Z,99.10
2018-09-27T10:44:35.581Z,98.80
2018-09-27T10:47:04.661Z,99.20
2018-09-27T10:49:33.655Z,98.70
2018-09-27T10:52:02.357Z,99.30
2018-09-27T10:54:30.927Z,99.60
2018-09-27T10:56:59.589Z,99.20
2018-09-27T10:59:28.432Z,99.30
2018-09-27T11:01:56.925Z,99.50
2018-09-27T11:04:25.457Z,98.90
2018-09-27T11:06:54.089Z,98.50
2018-09-27T11:09:22.632Z,99.00
2018-09-27T11:11:51.165Z,98.60
2018-09-27T11:14:20.885Z,98.10
2018-09-27T11:16:50.148Z,98.40
2018-09-27T11:19:18.741Z,98.40
2018-09-27T11:21:47.809Z,98.00
2018-09-27T11:24:16.435Z,98.20
2018-09-27T11:26:44.941Z,97.90
2018-09-27T11:29:19.487Z,97.80
2018-09-27T11:31:54.177Z,97.80
2018-09-27T11:34:23.032Z,97.60
2018-09-27T11:36:51.807Z,97.40
2018-09-27T11:39:20.608Z,97.70
2018-09-27T11:41:49.293Z,97.90
2018-09-27T11:44:18.065Z,97.50
2018-09-27T11:46:47.346Z,96.70
2018-09-27T11:49:16.425Z,96.40
2018-09-27T11:51:45.158Z,96.60
2018-09-27T11:54:13.710Z,96.70
2018-09-27T11:56:42.288Z,96.20
2018-09-27T11:59:11.143Z,96.60
2018-09-27T12:01:41.403Z,96.00
2018-09-27T12:04:09.931Z,96.30
2018-09-27T12:06:38.758Z,96.10
2018-09-27T12:09:09.894Z,95.90
2018-09-27T12:11:38.487Z,95.90
2018-09-27T12:14:07.632Z,95.30
2018-09-27T12:16:36.422Z,95.30
2018-09-27T12:19:07.337Z,95.80
2018-09-27T12:21:36.338Z,95.60
2018-09-27T12:24:05.041Z,94.90
2018-09-27T12:26:36.028Z,95.20
2018-09-27T12:29:04.705Z,95.10
2018-09-27T12:31:35.464Z,94.90
2018-09-27T12:34:04.103Z,94.00
2018-09-27T12:36:32.695Z,93.90
2018-09-27T12:39:01.311Z,93.70
2018-09-27T12:41:29.804Z,93.70
2018-09-27T12:43:58.699Z,93.60
2018-09-27T12:46:27.668Z,93.70
2018-09-27T12:48:56.507Z,93.50
2018-09-27T12:51:25.139Z,93.00
2018-09-27T12:53:53.614Z,93.40
2018-09-27T12:56:23.126Z,93.20
2018-09-27T12:58:51.726Z,92.70
2018-09-27T13:01:20.337Z,93.00
2018-09-27T13:03:50.098Z,92.50
2018-09-27T13:06:18.675Z,92.30
2018-09-27T13:08:47.302Z,92.60
2018-09-27T13:11:15.823Z,92.70
2018-09-27T13:13:44.406Z,92.60
2018-09-27T13:16:13.033Z,93.00
2018-09-27T13:18:41.925Z,92.90
2018-09-27T13:21:10.477Z,93.10
2018-09-27T13:23:39.229Z,92.90
2018-09-27T13:26:08.333Z,92.80
2018-09-27T13:28:37.660Z,92.00
2018-09-27T13:31:06.697Z,91.50
2018-09-27T13:33:35.377Z,90.50
2018-09-27T13:36:04.714Z,90.60
2018-09-27T13:38:34.067Z,90.80
2018-09-27T13:41:02.848Z,89.20
2018-09-27T13:43:31.618Z,89.50
2018-09-27T13:46:00.129Z,90.00
2018-09-27T13:48:28.783Z,89.70
2018-09-27T13:50:57.452Z,88.30
2018-09-27T13:53:26.097Z,89.40
2018-09-27T13:55:54.637Z,89.60
2018-09-27T13:58:23.213Z,90.20
2018-09-27T14:00:52.104Z,90.00
2018-09-27T14:03:21.189Z,90.40
2018-09-27T14:05:49.835Z,91.00
2018-09-27T14:08:19.015Z,90.30
2018-09-27T14:10:47.589Z,90.50
2018-09-27T14:13:16.150Z,90.00
2018-09-27T14:15:45.610Z,91.30
2018-09-27T14:18:14.278Z,91.80
2018-09-27T14:20:42.794Z,91.70
2018-09-27T14:23:11.407Z,92.20
2018-09-27T14:25:40.223Z,91.90
2018-09-27T14:28:08.745Z,92.20
2018-09-27T14:30:37.270Z,92.00
2018-09-27T14:33:05.893Z,91.80
2018-09-27T14:35:34.498Z,92.10
2018-09-27T14:38:03.037Z,92.00
2018-09-27T14:40:31.554Z,92.00
2018-09-27T14:43:00.110Z,92.10
2018-09-27T14:45:28.625Z,92.00
2018-09-27T14:47:57.348Z,91.90
2018-09-27T14:50:25.734Z,92.20
2018-09-27T14:52:54.277Z,91.90
2018-09-27T14:55:22.803Z,92.30
2018-09-27T14:57:51.403Z,92.50
2018-09-27T15:00:19.958Z,92.30
2018-09-27T15:02:48.514Z,92.30
2018-09-27T15:05:17.029Z,92.60
2018-09-27T15:07:45.605Z,91.50
2018-09-27T15:10:14.174Z,91.50
2018-09-27T15:12:42.962Z,91.50
2018-09-27T15:15:11.497Z,91.80
2018-09-27T15:17:40.082Z,91.90
2018-09-27T15:20:08.649Z,92.00
2018-09-27T15:22:37.266Z,92.00
2018-09-27T15:25:06.097Z,92.50
2018-09-27T15:27:34.616Z,92.90
2018-09-27T15:30:03.227Z,92.70
2018-09-27T15:32:31.738Z,92.80
2018-09-27T15:35:00.413Z,93.10
2018-09-27T15:37:29.171Z,93.10
2018-09-27T15:39:57.765Z,93.00
2018-09-27T15:42:26.259Z,93.00
2018-09-27T15:44:54.809Z,92.70
2018-09-27T15:47:23.317Z,93.80
2018-09-27T15:49:51.881Z,93.10
2018-09-27T15:52:20.395Z,92.80
2018-09-27T15:54:48.930Z,92.50
2018-09-27T15:57:17.437Z,92.70
2018-09-27T15:59:46.022Z,93.40
2018-09-27T16:02:14.546Z,93.10
2018-09-27T16:04:43.113Z,93.50
2018-09-27T16:07:11.717Z,94.30
2018-09-27T16:09:40.251Z,94.00
2018-09-27T16:12:08.782Z,94.00
2018-09-27T16:14:37.346Z,94.30
2018-09-27T16:17:06.096Z,94.70
2018-09-27T16:19:34.849Z,94.60
2018-09-27T16:22:03.456Z,94.60
2018-09-27T16:24:31.984Z,94.70
2018-09-27T16:27:00.505Z,95.00
2018-09-27T16:29:29.065Z,95.00
2018-09-27T16:31:57.571Z,95.30
2018-09-27T16:34:26.109Z,95.20
2018-09-27T16:36:54.615Z,95.50
2018-09-27T16:39:23.149Z,95.90
2018-09-27T16:41:51.683Z,96.50
2018-09-27T16:44:20.254Z,97.10
2018-09-27T16:46:48.820Z,98.20
2018-09-27T16:49:17.325Z,99.90
2018-09-27T16:51:46.105Z,99.90
2018-09-27T16:54:14.623Z,99.90
2018-09-27T16:56:43.168Z,99.90
2018-09-27T16:59:11.681Z,99.90
2018-09-27T17:01:40.303Z,99.90
2018-09-27T17:04:08.774Z,99.90
2018-09-27T17:06:37.322Z,99.90
2018-09-27T17:09:07.346Z,99.90
2018-09-27T17:11:36.004Z,99.90
2018-09-27T17:14:04.534Z,99.90
2018-09-27T17:16:33.116Z,99.90
2018-09-27T17:19:01.723Z,99.90
2018-09-27T17:21:30.257Z,99.90
2018-09-27T17:23:58.787Z,99.90
2018-09-27T17:26:27.345Z,99.90
2018-09-27T17:28:55.849Z,99.90
2018-09-27T17:31:24.479Z,99.90
2018-09-27T17:33:53.006Z,99.90
2018-09-27T17:36:21.566Z,99.90
2018-09-27T17:38:50.329Z,99.90
2018-09-27T17:41:18.902Z,99.90
2018-09-27T17:43:47.466Z,99.90
2018-09-27T17:46:16.011Z,99.90
2018-09-27T17:48:44.525Z,99.90
2018-09-27T17:51:13.073Z,99.90
2018-09-27T17:53:41.602Z,99.90
2018-09-27T17:56:10.205Z,99.90
2018-09-27T17:58:38.772Z,99.90
2018-09-27T18:01:07.278Z,99.90
2018-09-27T18:03:35.790Z,99.90
2018-09-27T18:06:04.336Z,99.90
2018-09-27T18:08:32.837Z,99.90
2018-09-27T18:11:01.385Z,99.90
2018-09-27T18:13:29.943Z,99.90
2018-09-27T18:15:58.425Z,99.90
2018-09-27T18:18:26.980Z,99.90
2018-09-27T18:20:55.478Z,99.90
2018-09-27T18:23:24.017Z,99.90
2018-09-27T18:25:52.534Z,99.90
2018-09-27T18:28:21.059Z,99.90
2018-09-27T18:30:49.582Z,99.90
2018-09-27T18:33:18.518Z,99.90
2018-09-27T18:35:47.197Z,99.90
2018-09-27T18:38:15.981Z,99.90
2018-09-27T18:40:44.282Z,99.90
2018-09-27T18:43:12.881Z,99.90
2018-09-27T18:45:41.426Z,99.90
2018-09-27T18:48:09.971Z,99.90
2018-09-27T18:50:38.466Z,99.90
2018-09-27T18:53:07.253Z,99.90
2018-09-27T18:55:35.779Z,99.90
2018-09-27T18:58:04.381Z,99.90
2018-09-27T19:00:32.898Z,99.90
2018-09-27T19:03:01.491Z,99.90
2018-09-27T19:05:29.997Z,99.90
2018-09-27T19:07:58.589Z,99.90
2018-09-27T19:10:27.090Z,99.90
2018-09-27T19:12:55.618Z,99.90
2018-09-27T19:15:24.147Z,99.90
2018-09-27T19:17:52.698Z,99.90
2018-09-27T19:20:21.221Z,99.90
2018-09-27T19:22:49.864Z,99.90
2018-09-27T19:25:18.281Z,99.90
2018-09-27T19:27:46.846Z,99.90
2018-09-27T19:30:15.449Z,99.90
2018-09-27T19:32:43.989Z,99.90
2018-09-27T19:35:12.553Z,99.90
2018-09-27T19:37:41.156Z,99.90
2018-09-27T19:40:09.679Z,99.90
2018-09-27T19:42:38.215Z,99.90
2018-09-27T19:45:06.757Z,99.90
2018-09-27T19:47:35.293Z,99.90
2018-09-27T19:50:03.922Z,99.90
2018-09-27T19:52:32.462Z,99.90
2018-09-27T19:55:00.981Z,99.90
2018-09-27T19:57:29.539Z,99.90
2018-09-27T19:59:58.054Z,99.90
2018-09-27T20:02:26.684Z,99.90
2018-09-27T20:04:55.170Z,99.90
2018-09-27T20:07:23.877Z,99.90
2018-09-27T20:09:52.708Z,99.90
2018-09-27T20:12:21.678Z,99.90
2018-09-27T20:14:50.259Z,99.90
2018-09-27T20:17:19.595Z,99.90
2018-09-27T20:19:48.132Z,99.90
2018-09-27T20:22:16.648Z,99.90
2018-09-27T20:24:45.198Z,99.90
2018-09-27T20:27:13.705Z,99.90
2018-09-27T20:29:42.265Z,99.90
2018-09-27T20:32:10.782Z,99.90
2018-09-27T20:34:39.389Z,99.90
2018-09-27T20:37:07.893Z,99.90
2018-09-27T20:39:36.425Z,99.90
2018-09-27T20:42:04.946Z,99.90
2018-09-27T20:44:33.494Z,99.90
2018-09-27T20:47:02.001Z,99.90
2018-09-27T20:49:30.550Z,99.90
2018-09-27T20:51:59.062Z,99.90
2018-09-27T20:54:27.586Z,99.90
2018-09-27T20:56:56.092Z,99.90
2018-09-27T20:59:24.645Z,99.90
2018-09-27T21:01:53.150Z,99.90
2018-09-27T21:04:21.680Z,99.90
2018-09-27T21:06:50.201Z,99.90
2018-09-27T21:09:18.752Z,99.90
2018-09-27T21:11:47.261Z,99.90
2018-09-27T21:14:15.788Z,99.90
2018-09-27T21:16:44.313Z,99.90
2018-09-27T21:19:12.856Z,99.90
2018-09-27T21:21:41.377Z,99.90
2018-09-27T21:24:09.922Z,99.90
2018-09-27T21:26:38.427Z,99.90
2018-09-27T21:29:06.997Z,99.90
2018-09-27T21:31:35.512Z,99.90
2018-09-27T21:34:04.064Z,99.90
2018-09-27T21:36:32.581Z,99.90
2018-09-27T21:39:01.134Z,99.90
2018-09-27T21:41:29.645Z,99.90
2018-09-27T21:43:58.186Z,99.90
2018-09-27T21:46:26.697Z,99.90
2018-09-27T21:48:55.235Z,99.90
2018-09-27T21:51:23.735Z,99.90
2018-09-27T21:53:52.263Z,99.90
2018-09-27T21:56:20.810Z,99.90
2018-09-27T21:58:49.337Z,99.90
2018-09-27T22:01:18.347Z,99.90
2018-09-27T22:03:47.128Z,99.90
2018-09-27T22:06:15.674Z,99.90
2018-09-27T22:08:44.193Z,99.90
2018-09-27T22:11:12.739Z,99.90
2018-09-27T22:13:41.237Z,99.90
2018-09-27T22:16:09.778Z,99.90
2018-09-27T22:18:38.432Z,99.90
2018-09-27T22:21:07.121Z,99.90
2018-09-27T22:23:35.656Z,99.90
2018-09-27T22:26:04.210Z,99.90
2018-09-27T22:28:32.726Z,99.90
2018-09-27T22:31:01.253Z,99.90
2018-09-27T22:33:29.769Z,99.90
2018-09-27T22:35:58.305Z,99.90
2018-09-27T22:38:26.826Z,99.90
2018-09-27T22:40:55.361Z,99.90
2018-09-27T22:43:23.896Z,99.90
2018-09-27T22:45:52.425Z,99.90
2018-09-27T22:48:20.929Z,99.90
2018-09-27T22:50:49.465Z,99.90
2018-09-27T22:53:17.985Z,99.90
2018-09-27T22:55:46.553Z,99.90
2018-09-27T22:58:15.062Z,99.90
2018-09-27T23:00:43.698Z,99.90
2018-09-27T23:03:12.223Z,99.90
2018-09-27T23:05:40.848Z,99.90
2018-09-27T23:08:09.377Z,99.90
2018-09-27T23:10:37.998Z,99.90
2018-09-27T23:13:06.511Z,99.90
2018-09-27T23:15:35.053Z,99.90
2018-09-27T23:18:03.605Z,99.90
2018-09-27T23:20:32.154Z,99.90
2018-09-27T23:23:00.673Z,99.90
2018-09-27T23:25:29.185Z,99.90
2018-09-27T23:27:57.757Z,99.90
2018-09-27T23:30:26.270Z,99.90
2018-09-27T23:32:54.808Z,99.90
2018-09-27T23:35:23.358Z,99.90
2018-09-27T23:37:51.969Z,99.90
2018-09-27T23:40:20.485Z,99.90
2018-09-27T23:42:49.069Z,99.90
2018-09-27T23:45:17.582Z,99.90
2018-09-27T23:47:46.108Z,99.90
2018-09-27T23:50:14.632Z,99.90
2018-09-27T23:52:43.194Z,99.90
2018-09-27T23:55:11.702Z,99.90
2018-09-27T23:57:40.233Z,99.90
